createdAt,value
2018-01-20T00:00:15.359Z,5.87
2018-01-20T00:02:44.383Z,5.37
2018-01-20T00:05:12.638Z,6.67
2018-01-20T00:07:40.935Z,5.80
2018-01-20T00:13:11.810Z,5.67
2018-01-20T00:15:40.176Z,5.50
2018-01-20T00:18:08.427Z,6.33
2018-01-20T00:20:36.689Z,5.47
2018-01-20T00:23:05.698Z,6.07
2018-01-20T00:25:33.948Z,6.03
2018-01-20T00:28:02.973Z,6.30
2018-01-20T00:30:31.226Z,5.23
2018-01-20T00:33:00.237Z,6.10
2018-01-20T00:35:28.457Z,6.80
2018-01-20T00:37:56.746Z,8.60
2018-01-20T00:40:24.994Z,10.27
2018-01-20T00:42:53.516Z,10.80
2018-01-20T00:45:21.824Z,11.17
2018-01-20T00:47:50.079Z,12.43
2018-01-20T00:50:18.358Z,10.33
2018-01-20T00:52:46.739Z,10.43
2018-01-20T00:55:15.027Z,11.07
2018-01-20T00:57:43.395Z,12.03
2018-01-20T01:00:11.680Z,11.57
2018-01-20T01:02:40.002Z,12.47
2018-01-20T01:05:09.067Z,13.33
2018-01-20T01:07:37.326Z,14.93
2018-01-20T01:10:05.697Z,15.77
2018-01-20T01:12:34.078Z,17.20
2018-01-20T01:15:02.371Z,16.83
2018-01-20T01:17:30.654Z,17.33
2018-01-20T01:19:58.934Z,17.67
2018-01-20T01:22:27.194Z,18.97
2018-01-20T01:24:55.618Z,19.37
2018-01-20T01:27:24.655Z,19.27
2018-01-20T01:29:52.924Z,20.13
2018-01-20T01:32:21.342Z,21.27
2018-01-20T01:34:49.638Z,19.83
2018-01-20T01:37:18.825Z,21.63
2018-01-20T01:39:47.881Z,20.43
2018-01-20T01:42:16.137Z,20.13
2018-01-20T01:44:44.386Z,21.17
2018-01-20T01:47:12.735Z,20.03
2018-01-20T01:49:41.856Z,21.17
2018-01-20T01:52:10.109Z,22.93
2018-01-20T01:54:39.134Z,21.40
2018-01-20T01:57:07.446Z,19.87
2018-01-20T01:59:35.693Z,21.23
2018-01-20T02:02:03.964Z,20.93
2018-01-20T02:04:32.246Z,19.80
2018-01-20T02:07:00.506Z,18.47
2018-01-20T02:09:29.662Z,16.93
2018-01-20T02:11:57.907Z,16.27
2018-01-20T02:14:26.195Z,15.40
2018-01-20T02:16:54.458Z,13.83
2018-01-20T02:19:22.740Z,12.90
2018-01-20T02:21:51.126Z,12.40
2018-01-20T02:24:20.175Z,11.63
2018-01-20T02:26:48.459Z,10.70
2018-01-20T02:29:16.693Z,11.17
2018-01-20T02:31:45.706Z,10.80
2018-01-20T02:34:14.235Z,10.57
2018-01-20T02:36:42.498Z,11.13
2018-01-20T02:39:10.793Z,10.23
2018-01-20T02:41:39.100Z,10.50
2018-01-20T02:44:07.357Z,10.27
2018-01-20T02:46:35.782Z,10.27
2018-01-20T02:49:04.131Z,10.53
2018-01-20T02:51:33.168Z,10.23
2018-01-20T02:54:01.438Z,9.77
2018-01-20T02:56:29.717Z,10.20
2018-01-20T02:58:57.970Z,10.50
2018-01-20T03:01:26.270Z,10.33
2018-01-20T03:03:54.519Z,10.53
2018-01-20T03:06:22.812Z,10.10
2018-01-20T03:08:51.072Z,10.43
2018-01-20T03:11:19.331Z,10.60
2018-01-20T03:13:47.641Z,11.33
2018-01-20T03:16:15.926Z,10.23
2018-01-20T03:18:44.154Z,10.03
2018-01-20T03:21:12.447Z,11.37
2018-01-20T03:23:40.676Z,10.30
2018-01-20T03:26:09.717Z,11.00
2018-01-20T03:28:37.989Z,10.67
2018-01-20T03:31:06.275Z,11.13
2018-01-20T03:33:34.570Z,12.47
2018-01-20T03:36:02.834Z,10.50
2018-01-20T03:38:31.139Z,10.30
2018-01-20T03:40:59.564Z,11.77
2018-01-20T03:43:27.990Z,11.67
2018-01-20T03:45:56.230Z,10.83
2018-01-20T03:48:26.038Z,10.33
2018-01-20T03:50:54.400Z,10.97
2018-01-20T03:53:22.675Z,10.07
2018-01-20T03:55:51.670Z,9.10
2018-01-20T03:58:20.057Z,10.77
2018-01-20T04:00:48.436Z,10.17
2018-01-20T04:03:16.806Z,9.83
2018-01-20T04:05:45.135Z,10.13
2018-01-20T04:08:13.423Z,9.77
2018-01-20T04:10:41.674Z,10.23
2018-01-20T04:13:09.937Z,9.67
2018-01-20T04:15:38.426Z,9.53
2018-01-20T04:18:06.702Z,9.60
2018-01-20T04:20:35.002Z,10.00
2018-01-20T04:23:04.019Z,8.90
2018-01-20T04:25:32.269Z,9.53
2018-01-20T04:28:01.286Z,9.40
2018-01-20T04:30:29.560Z,10.20
2018-01-20T04:32:57.897Z,9.10
2018-01-20T04:35:26.175Z,9.40
2018-01-20T04:37:54.419Z,10.90
2018-01-20T04:40:22.682Z,9.77
2018-01-20T04:42:50.956Z,9.07
2018-01-20T04:45:19.325Z,9.97
2018-01-20T04:47:47.588Z,9.37
2018-01-20T04:50:15.863Z,10.07
2018-01-20T04:52:44.114Z,9.07
2018-01-20T04:55:13.180Z,9.50
2018-01-20T04:57:41.450Z,9.27
2018-01-20T05:00:09.751Z,9.97
2018-01-20T05:02:38.787Z,9.77
2018-01-20T05:05:07.045Z,9.33
2018-01-20T05:07:35.362Z,10.33
2018-01-20T05:10:03.613Z,9.57
2018-01-20T05:12:31.885Z,10.37
2018-01-20T05:15:00.150Z,9.27
2018-01-20T05:17:28.421Z,9.40
2018-01-20T05:19:56.702Z,8.87
2018-01-20T05:22:24.945Z,9.53
2018-01-20T05:24:53.983Z,8.07
2018-01-20T05:27:22.622Z,8.33
2018-01-20T05:29:50.890Z,8.43
2018-01-20T05:32:19.241Z,9.07
2018-01-20T05:34:47.637Z,9.17
2018-01-20T05:37:15.885Z,8.30
2018-01-20T05:39:44.137Z,8.60
2018-01-20T05:42:12.490Z,8.27
2018-01-20T05:44:40.770Z,7.70
2018-01-20T05:47:09.030Z,7.20
2018-01-20T05:49:37.278Z,7.97
2018-01-20T05:52:05.641Z,7.90
2018-01-20T05:54:33.983Z,9.00
2018-01-20T05:57:02.246Z,7.20
2018-01-20T05:59:30.507Z,8.10
2018-01-20T06:01:59.629Z,7.90
2018-01-20T06:04:27.977Z,8.60
2018-01-20T06:06:56.286Z,8.23
2018-01-20T06:09:24.690Z,7.77
2018-01-20T06:11:52.954Z,8.43
2018-01-20T06:14:21.199Z,7.53
2018-01-20T06:16:49.542Z,8.97
2018-01-20T06:19:17.876Z,7.50
2018-01-20T06:21:46.155Z,7.87
2018-01-20T06:24:14.382Z,7.90
2018-01-20T06:26:43.422Z,8.90
2018-01-20T06:29:11.679Z,8.57
2018-01-20T06:31:39.960Z,8.30
2018-01-20T06:34:08.237Z,8.47
2018-01-20T06:36:36.514Z,8.60
2018-01-20T06:39:04.771Z,9.60
2018-01-20T06:41:33.842Z,9.00
2018-01-20T06:44:02.895Z,8.00
2018-01-20T06:46:31.161Z,7.97
2018-01-20T06:48:59.415Z,7.97
2018-01-20T06:51:27.665Z,7.70
2018-01-20T06:53:55.924Z,8.20
2018-01-20T06:56:24.982Z,8.37
2018-01-20T06:58:53.233Z,8.37
2018-01-20T07:01:21.594Z,8.17
2018-01-20T07:03:50.597Z,7.83
2018-01-20T07:06:18.857Z,8.13
2018-01-20T07:08:47.223Z,7.93
2018-01-20T07:11:16.252Z,8.50
2018-01-20T07:13:44.521Z,7.60
2018-01-20T07:16:12.869Z,7.43
2018-01-20T07:18:41.123Z,8.07
2018-01-20T07:21:09.567Z,8.93
2018-01-20T07:23:37.818Z,8.50
2018-01-20T07:26:06.169Z,7.73
2018-01-20T07:28:35.186Z,8.23
2018-01-20T07:31:03.434Z,8.30
2018-01-20T07:33:32.651Z,7.23
2018-01-20T07:36:00.927Z,7.33
2018-01-20T07:38:29.206Z,7.13
2018-01-20T07:40:57.469Z,7.73
2018-01-20T07:43:25.749Z,6.47
2018-01-20T07:45:54.004Z,6.50
2018-01-20T07:48:22.991Z,7.10
2018-01-20T07:50:52.015Z,6.73
2018-01-20T07:53:20.301Z,6.70
2018-01-20T07:55:48.557Z,6.90
2018-01-20T07:58:16.825Z,6.40
2018-01-20T08:00:45.159Z,6.60
2018-01-20T08:03:13.453Z,6.77
2018-01-20T08:05:41.742Z,6.30
2018-01-20T08:08:09.976Z,6.73
2018-01-20T08:10:38.269Z,7.73
2018-01-20T08:13:06.590Z,11.90
2018-01-20T08:15:34.870Z,7.30
2018-01-20T08:18:03.196Z,7.10
2018-01-20T08:20:31.435Z,6.40
2018-01-20T08:22:59.847Z,5.27
2018-01-20T08:25:29.601Z,5.77
2018-01-20T08:27:57.861Z,6.27
2018-01-20T08:30:26.112Z,5.27
2018-01-20T08:32:55.177Z,5.73
2018-01-20T08:35:23.451Z,6.80
2018-01-20T08:37:51.705Z,6.20
2018-01-20T08:40:19.949Z,6.30
2018-01-20T08:42:49.028Z,5.87
2018-01-20T08:45:17.920Z,6.43
2018-01-20T08:47:47.154Z,5.40
2018-01-20T08:50:15.435Z,6.13
2018-01-20T08:52:43.718Z,7.13
2018-01-20T08:55:11.982Z,5.90
2018-01-20T08:57:40.261Z,6.93
2018-01-20T09:00:08.538Z,6.87
2018-01-20T09:02:36.820Z,4.80
2018-01-20T09:05:05.078Z,6.30
2018-01-20T09:07:33.354Z,5.30
2018-01-20T09:10:01.642Z,4.90
2018-01-20T09:12:29.914Z,5.13
2018-01-20T09:14:58.270Z,7.40
2018-01-20T09:17:26.509Z,6.20
2018-01-20T09:19:55.586Z,7.23
2018-01-20T09:22:23.838Z,7.57
2018-01-20T09:24:52.193Z,5.90
2018-01-20T09:27:20.430Z,5.30
2018-01-20T09:29:49.554Z,6.00
2018-01-20T09:32:17.972Z,7.43
2018-01-20T09:34:46.222Z,6.37
2018-01-20T09:37:14.485Z,8.00
2018-01-20T09:39:42.927Z,8.10
2018-01-20T09:42:11.183Z,7.60
2018-01-20T09:44:39.495Z,6.17
2018-01-20T09:47:08.563Z,6.60
2018-01-20T09:49:36.787Z,6.07
2018-01-20T09:52:05.082Z,5.47
2018-01-20T09:54:33.452Z,5.07
2018-01-20T09:57:01.713Z,5.00
2018-01-20T09:59:29.960Z,5.70
2018-01-20T10:01:59.024Z,4.93
2018-01-20T10:04:27.288Z,5.30
2018-01-20T10:06:55.528Z,4.43
2018-01-20T10:09:23.826Z,5.00
2018-01-20T10:11:52.132Z,4.73
2018-01-20T10:14:20.399Z,4.50
2018-01-20T10:16:48.611Z,4.77
2018-01-20T10:19:16.877Z,3.73
2018-01-20T10:21:45.912Z,4.37
2018-01-20T10:24:14.330Z,3.47
2018-01-20T10:26:42.591Z,3.83
2018-01-20T10:29:10.862Z,4.10
2018-01-20T10:31:39.125Z,4.33
2018-01-20T10:34:07.555Z,4.20
2018-01-20T10:36:36.574Z,4.47
2018-01-20T10:39:04.833Z,4.40
2018-01-20T10:41:33.106Z,4.47
2018-01-20T10:44:01.339Z,5.23
2018-01-20T10:46:29.601Z,4.40
2018-01-20T10:48:57.875Z,4.63
2018-01-20T10:51:26.117Z,4.80
2018-01-20T10:53:54.363Z,4.10
2018-01-20T10:56:23.401Z,3.80
2018-01-20T10:58:51.646Z,4.83
2018-01-20T11:01:19.911Z,4.50
2018-01-20T11:03:48.177Z,4.63
2018-01-20T11:06:17.262Z,5.40
2018-01-20T11:08:45.665Z,6.07
2018-01-20T11:11:14.150Z,4.30
2018-01-20T11:13:42.435Z,4.50
2018-01-20T11:16:10.699Z,4.43
2018-01-20T11:18:39.007Z,4.13
2018-01-20T11:21:07.356Z,4.67
2018-01-20T11:23:35.679Z,4.70
2018-01-20T11:26:03.931Z,4.60
2018-01-20T11:28:32.199Z,4.70
2018-01-20T11:31:00.462Z,5.63
2018-01-20T11:33:28.763Z,4.60
2018-01-20T11:35:57.018Z,4.93
2018-01-20T11:38:25.270Z,4.90
2018-01-20T11:40:53.608Z,5.03
2018-01-20T11:43:21.854Z,5.13
2018-01-20T11:45:50.182Z,4.57
2018-01-20T11:48:19.250Z,4.30
2018-01-20T11:50:47.530Z,5.10
2018-01-20T11:53:16.576Z,4.70
2018-01-20T11:55:44.866Z,5.30
2018-01-20T11:58:13.118Z,5.53
2018-01-20T12:00:41.559Z,5.33
2018-01-20T12:03:09.833Z,4.53
2018-01-20T12:05:38.888Z,4.30
2018-01-20T12:08:07.129Z,4.97
2018-01-20T12:10:35.463Z,4.53
2018-01-20T12:13:05.234Z,5.07
2018-01-20T12:15:33.519Z,4.23
2018-01-20T12:18:01.779Z,4.40
2018-01-20T12:20:30.176Z,4.93
2018-01-20T12:22:59.195Z,4.47
2018-01-20T12:25:27.475Z,5.43
2018-01-20T12:27:56.552Z,4.43
2018-01-20T12:30:24.886Z,4.60
2018-01-20T12:32:53.169Z,5.07
2018-01-20T12:35:21.402Z,16.10
2018-01-20T12:37:50.465Z,15.80
2018-01-20T12:40:18.769Z,16.10
2018-01-20T12:42:47.791Z,10.53
2018-01-20T12:45:17.800Z,6.67
2018-01-20T12:47:46.188Z,7.33
2018-01-20T12:50:14.457Z,6.67
2018-01-20T12:52:42.951Z,6.70
2018-01-20T12:55:11.213Z,6.90
2018-01-20T12:57:39.488Z,7.63
2018-01-20T13:00:07.750Z,6.20
2018-01-20T13:02:36.796Z,6.70
2018-01-20T13:05:05.075Z,6.40
2018-01-20T13:07:33.467Z,6.63
2018-01-20T13:10:01.713Z,6.50
2018-01-20T13:12:30.039Z,7.00
2018-01-20T13:14:59.076Z,8.00
2018-01-20T13:17:27.481Z,6.73
2018-01-20T13:19:56.637Z,6.90
2018-01-20T13:22:24.894Z,9.27
2018-01-20T13:24:53.164Z,8.00
2018-01-20T13:27:22.178Z,12.77
2018-01-20T13:29:50.480Z,15.03
2018-01-20T13:32:18.726Z,15.90
2018-01-20T13:34:47.007Z,12.77
2018-01-20T13:37:15.283Z,10.30
2018-01-20T13:39:43.705Z,10.00
2018-01-20T13:42:11.944Z,9.90
2018-01-20T13:44:40.202Z,9.93
2018-01-20T13:47:08.462Z,8.63
2018-01-20T13:49:37.501Z,6.43
2018-01-20T13:52:05.818Z,4.60
2018-01-20T13:54:34.074Z,6.47
2018-01-20T13:57:02.314Z,4.27
2018-01-20T13:59:30.603Z,4.60
2018-01-20T14:01:58.827Z,5.93
2018-01-20T14:04:27.070Z,5.20
2018-01-20T14:06:55.391Z,5.73
2018-01-20T14:09:23.718Z,10.93
2018-01-20T14:11:51.974Z,5.43
2018-01-20T14:14:20.218Z,4.77
2018-01-20T14:16:48.507Z,10.73
2018-01-20T14:19:16.740Z,9.67
2018-01-20T14:21:45.773Z,8.37
2018-01-20T14:24:14.045Z,7.40
2018-01-20T14:26:42.396Z,8.53
2018-01-20T14:29:10.702Z,8.03
2018-01-20T14:31:39.083Z,9.63
2018-01-20T14:34:07.427Z,10.33
2018-01-20T14:36:35.825Z,12.67
2018-01-20T14:39:04.130Z,7.27
2018-01-20T14:41:32.569Z,10.07
2018-01-20T14:44:00.867Z,8.30
2018-01-20T14:46:29.103Z,10.70
2018-01-20T14:48:57.462Z,7.43
2018-01-20T14:51:25.727Z,8.17
2018-01-20T14:53:54.773Z,9.73
2018-01-20T14:56:23.023Z,7.63
2018-01-20T14:58:51.309Z,8.00
2018-01-20T15:01:19.571Z,16.67
2018-01-20T15:03:47.846Z,8.13
2018-01-20T15:06:16.130Z,8.47
2018-01-20T15:08:44.454Z,8.20
2018-01-20T15:11:12.729Z,13.07
2018-01-20T15:13:41.019Z,8.67
2018-01-20T15:16:10.765Z,10.17
2018-01-20T15:18:39.067Z,8.67
2018-01-20T15:21:07.321Z,12.83
2018-01-20T15:23:35.569Z,9.50
2018-01-20T15:26:03.862Z,11.30
2018-01-20T15:28:32.135Z,10.50
2018-01-20T15:31:00.424Z,10.83
2018-01-20T15:33:28.779Z,10.43
2018-01-20T15:35:57.154Z,7.70
2018-01-20T15:38:26.339Z,9.13
2018-01-20T15:40:55.421Z,8.33
2018-01-20T15:43:23.748Z,9.40
2018-01-20T15:45:52.014Z,8.53
2018-01-20T15:48:20.305Z,8.80
2018-01-20T15:50:48.577Z,7.00
2018-01-20T15:53:16.866Z,6.80
2018-01-20T15:55:45.126Z,5.60
2018-01-20T15:58:13.504Z,6.93
2018-01-20T16:00:41.757Z,6.90
2018-01-20T16:03:10.005Z,6.13
2018-01-20T16:05:38.273Z,5.40
2018-01-20T16:08:06.525Z,5.90
2018-01-20T16:10:34.858Z,6.13
2018-01-20T16:13:03.855Z,5.50
2018-01-20T16:15:32.127Z,5.07
2018-01-20T16:18:00.406Z,5.80
2018-01-20T16:20:28.659Z,6.27
2018-01-20T16:22:57.023Z,6.37
2018-01-20T16:25:25.308Z,7.43
2018-01-20T16:27:54.349Z,8.10
2018-01-20T16:30:22.588Z,9.50
2018-01-20T16:32:50.928Z,8.80
2018-01-20T16:35:19.214Z,10.07
2018-01-20T16:37:48.246Z,9.27
2018-01-20T16:40:16.477Z,8.30
2018-01-20T16:42:44.743Z,9.60
2018-01-20T16:45:13.010Z,10.60
2018-01-20T16:47:41.286Z,7.97
2018-01-20T16:50:09.563Z,8.00
2018-01-20T16:52:37.845Z,7.03
2018-01-20T16:55:06.058Z,6.23
2018-01-20T16:57:34.303Z,6.07
2018-01-20T17:00:03.313Z,5.50
2018-01-20T17:02:32.324Z,6.23
2018-01-20T17:05:00.646Z,6.37
2018-01-20T17:07:29.765Z,6.60
2018-01-20T17:09:58.780Z,6.23
2018-01-20T17:12:27.034Z,7.40
2018-01-20T17:14:56.153Z,7.83
2018-01-20T17:17:24.408Z,7.87
2018-01-20T17:19:53.417Z,7.90
2018-01-20T17:22:21.671Z,8.40
2018-01-20T17:24:50.685Z,8.83
2018-01-20T17:27:18.967Z,9.03
2018-01-20T17:29:47.392Z,9.07
2018-01-20T17:32:15.642Z,9.13
2018-01-20T17:34:43.982Z,9.10
2018-01-20T17:37:12.993Z,9.63
2018-01-20T17:39:41.268Z,10.90
2018-01-20T17:42:09.637Z,9.80
2018-01-20T17:44:38.655Z,12.33
2018-01-20T17:47:06.918Z,12.63
2018-01-20T17:49:35.236Z,14.50
2018-01-20T17:52:03.509Z,14.60
2018-01-20T17:54:31.768Z,14.47
2018-01-20T17:57:00.045Z,13.87
2018-01-20T17:59:28.441Z,14.77
2018-01-20T18:01:56.761Z,13.83
2018-01-20T18:04:25.014Z,14.37
2018-01-20T18:06:53.288Z,15.03
2018-01-20T18:09:22.414Z,12.77
2018-01-20T18:11:50.688Z,13.10
2018-01-20T18:14:19.001Z,13.33
2018-01-20T18:16:47.275Z,13.90
2018-01-20T18:19:15.649Z,13.80
2018-01-20T18:21:43.946Z,13.50
2018-01-20T18:24:12.485Z,14.27
2018-01-20T18:26:40.742Z,13.90
2018-01-20T18:29:09.117Z,15.47
2018-01-20T18:31:37.376Z,15.43
2018-01-20T18:34:05.822Z,16.77
2018-01-20T18:36:34.874Z,17.47
2018-01-20T18:39:03.166Z,17.87
2018-01-20T18:41:31.447Z,18.07
2018-01-20T18:43:59.745Z,18.47
2018-01-20T18:46:28.802Z,19.13
2018-01-20T18:48:57.054Z,20.30
2018-01-20T18:51:25.329Z,20.27
2018-01-20T18:53:53.591Z,20.03
2018-01-20T18:56:21.890Z,20.37
2018-01-20T18:58:50.170Z,21.17
2018-01-20T19:01:18.437Z,19.93
2018-01-20T19:03:46.726Z,21.17
2018-01-20T19:06:15.396Z,21.40
2018-01-20T19:08:43.643Z,21.70
2018-01-20T19:11:11.921Z,20.10
2018-01-20T19:13:40.217Z,21.40
2018-01-20T19:16:08.645Z,20.53
2018-01-20T19:18:36.875Z,22.53
2018-01-20T19:21:05.163Z,20.93
2018-01-20T19:23:33.424Z,21.13
2018-01-20T19:26:01.722Z,23.20
2018-01-20T19:28:29.970Z,22.80
2018-01-20T19:30:58.246Z,22.97
2018-01-20T19:33:26.510Z,23.33
2018-01-20T19:35:54.793Z,24.30
2018-01-20T19:38:23.041Z,23.60
2018-01-20T19:40:51.285Z,23.93
2018-01-20T19:43:20.335Z,24.77
2018-01-20T19:45:48.587Z,23.03
2018-01-20T19:48:16.878Z,25.30
2018-01-20T19:50:45.163Z,25.57
2018-01-20T19:53:13.481Z,24.37
2018-01-20T19:55:41.722Z,25.17
2018-01-20T19:58:10.003Z,23.30
2018-01-20T20:00:38.278Z,23.03
2018-01-20T20:03:06.581Z,24.50
2018-01-20T20:05:35.618Z,25.00
2018-01-20T20:08:03.858Z,23.43
2018-01-20T20:10:32.891Z,23.63
2018-01-20T20:13:01.160Z,24.80
2018-01-20T20:15:29.822Z,24.43
2018-01-20T20:17:59.615Z,23.60
2018-01-20T20:20:28.046Z,26.67
2018-01-20T20:22:56.282Z,25.27
2018-01-20T20:25:24.547Z,28.03
2018-01-20T20:27:53.583Z,26.40
2018-01-20T20:30:21.835Z,27.00
2018-01-20T20:32:50.123Z,26.03
2018-01-20T20:35:18.455Z,24.70
2018-01-20T20:37:46.735Z,26.27
2018-01-20T20:40:15.795Z,23.83
2018-01-20T20:42:44.075Z,23.07
2018-01-20T20:45:12.421Z,25.00
2018-01-20T20:47:40.704Z,25.47
2018-01-20T20:50:08.995Z,26.70
2018-01-20T20:52:37.272Z,26.13
2018-01-20T20:55:05.514Z,25.87
2018-01-20T20:57:33.805Z,28.53
2018-01-20T21:00:02.089Z,28.10
2018-01-20T21:02:30.364Z,29.20
2018-01-20T21:04:58.703Z,27.07
2018-01-20T21:07:26.987Z,27.50
2018-01-20T21:09:55.255Z,27.33
2018-01-20T21:12:23.609Z,28.20
2018-01-20T21:14:52.647Z,27.80
2018-01-20T21:17:20.918Z,29.47
2018-01-20T21:19:49.195Z,27.30
2018-01-20T21:22:17.478Z,28.23
2018-01-20T21:24:45.743Z,25.90
2018-01-20T21:27:14.010Z,25.90
2018-01-20T21:29:42.338Z,26.63
2018-01-20T21:32:10.678Z,25.93
2018-01-20T21:34:39.016Z,25.83
2018-01-20T21:37:08.764Z,26.33
2018-01-20T21:39:37.030Z,26.07
2018-01-20T21:42:05.282Z,24.23
2018-01-20T21:44:33.637Z,25.43
2018-01-20T21:47:01.905Z,27.40
2018-01-20T21:49:30.202Z,24.90
2018-01-20T21:51:58.445Z,25.57
2018-01-20T21:54:26.740Z,26.57
2018-01-20T21:56:55.766Z,28.60
2018-01-20T21:59:24.026Z,28.80
2018-01-20T22:01:52.312Z,28.90
2018-01-20T22:04:20.593Z,29.57
2018-01-20T22:06:48.863Z,27.60
2018-01-20T22:09:17.130Z,26.97
2018-01-20T22:11:45.423Z,29.17
2018-01-20T22:14:13.676Z,28.00
2018-01-20T22:16:41.934Z,29.73
2018-01-20T22:19:10.949Z,29.07
2018-01-20T22:21:39.228Z,28.73
2018-01-20T22:24:07.470Z,28.20
2018-01-20T22:26:36.479Z,28.80
2018-01-20T22:29:04.811Z,30.00
2018-01-20T22:31:33.078Z,30.03
2018-01-20T22:34:01.335Z,29.70
2018-01-20T22:36:29.586Z,30.67
2018-01-20T22:38:57.854Z,31.93
2018-01-20T22:41:26.131Z,32.03
2018-01-20T22:43:54.418Z,32.10
2018-01-20T22:46:22.862Z,31.83
2018-01-20T22:48:51.121Z,32.53
2018-01-20T22:51:19.359Z,33.97
2018-01-20T22:53:47.670Z,33.17
2018-01-20T22:56:16.026Z,33.30
2018-01-20T22:58:44.330Z,33.43
2018-01-20T23:01:12.600Z,33.53
2018-01-20T23:03:40.988Z,32.97
2018-01-20T23:06:10.046Z,34.80
2018-01-20T23:08:38.369Z,32.57
2018-01-20T23:11:07.545Z,32.77
2018-01-20T23:13:35.823Z,34.27
2018-01-20T23:16:04.120Z,34.97
2018-01-20T23:18:33.133Z,35.97
2018-01-20T23:21:01.375Z,34.70
2018-01-20T23:23:30.434Z,35.37
2018-01-20T23:25:58.739Z,37.13
2018-01-20T23:28:26.980Z,36.33
2018-01-20T23:30:55.222Z,36.10
2018-01-20T23:33:23.490Z,37.10
2018-01-20T23:35:51.996Z,36.23
2018-01-20T23:38:20.422Z,34.20
2018-01-20T23:40:49.429Z,34.83
2018-01-20T23:43:17.731Z,34.60
2018-01-20T23:45:46.032Z,35.20
2018-01-20T23:48:14.281Z,34.20
2018-01-20T23:50:42.613Z,36.63
2018-01-20T23:53:10.946Z,36.63
2018-01-20T23:55:39.190Z,34.73
2018-01-20T23:58:07.513Z,34.70
